sensor_id;sensor_type;location;lat;lon;timestamp;temperature;humidity
40932;DHT22;36257;46.052;12.540;2023-03-01T00:01:25;2.50;89.20
40932;DHT22;36257;46.052;12.540;2023-03-01T00:03:52;2.50;89.30
40932;DHT22;36257;46.052;12.540;2023-03-01T00:06:19;2.60;89.10
40932;DHT22;36257;46.052;12.540;2023-03-01T00:08:44;2.60;89.10
40932;DHT22;36257;46.052;12.540;2023-03-01T00:11:26;2.60;88.70
40932;DHT22;36257;46.052;12.540;2023-03-01T00:13:53;2.60;88.50
40932;DHT22;36257;46.052;12.540;2023-03-01T00:16:23;2.60;88.70
40932;DHT22;36257;46.052;12.540;2023-03-01T00:18:53;2.70;88.10
40932;DHT22;36257;46.052;12.540;2023-03-01T00:21:20;2.70;87.90
40932;DHT22;36257;46.052;12.540;2023-03-01T00:23:46;2.70;87.90
40932;DHT22;36257;46.052;12.540;2023-03-01T00:26:14;2.60;88.00
40932;DHT22;36257;46.052;12.540;2023-03-01T00:28:40;2.60;88.00
40932;DHT22;36257;46.052;12.540;2023-03-01T00:31:10;2.60;88.20
40932;DHT22;36257;46.052;12.540;2023-03-01T00:33:36;2.60;88.20
40932;DHT22;36257;46.052;12.540;2023-03-01T00:36:01;2.60;88.70
40932;DHT22;36257;46.052;12.540;2023-03-01T00:38:27;2.50;88.90
40932;DHT22;36257;46.052;12.540;2023-03-01T00:40:53;2.40;89.10
40932;DHT22;36257;46.052;12.540;2023-03-01T00:43:18;2.30;89.50
40932;DHT22;36257;46.052;12.540;2023-03-01T00:45:44;2.30;89.70
40932;DHT22;36257;46.052;12.540;2023-03-01T00:48:10;2.30;89.70
40932;DHT22;36257;46.052;12.540;2023-03-01T00:50:36;2.30;89.40
40932;DHT22;36257;46.052;12.540;2023-03-01T00:53:02;2.30;89.50
40932;DHT22;36257;46.052;12.540;2023-03-01T00:55:27;2.30;89.70
40932;DHT22;36257;46.052;12.540;2023-03-01T00:57:53;2.40;89.40
40932;DHT22;36257;46.052;12.540;2023-03-01T01:00:19;2.40;89.10
40932;DHT22;36257;46.052;12.540;2023-03-01T01:02:46;2.40;89.20
40932;DHT22;36257;46.052;12.540;2023-03-01T01:05:12;2.40;89.20
40932;DHT22;36257;46.052;12.540;2023-03-01T01:07:38;2.30;89.50
40932;DHT22;36257;46.052;12.540;2023-03-01T01:10:04;2.40;89.50
40932;DHT22;36257;46.052;12.540;2023-03-01T01:12:30;2.30;89.30
40932;DHT22;36257;46.052;12.540;2023-03-01T01:14:56;2.30;89.70
40932;DHT22;36257;46.052;12.540;2023-03-01T01:17:22;2.30;89.40
40932;DHT22;36257;46.052;12.540;2023-03-01T01:19:47;2.40;89.30
40932;DHT22;36257;46.052;12.540;2023-03-01T01:22:13;2.40;89.20
40932;DHT22;36257;46.052;12.540;2023-03-01T01:24:38;2.30;89.30
40932;DHT22;36257;46.052;12.540;2023-03-01T01:27:04;2.30;89.30
40932;DHT22;36257;46.052;12.540;2023-03-01T01:29:31;2.40;89.30
40932;DHT22;36257;46.052;12.540;2023-03-01T01:31:57;2.40;89.40
40932;DHT22;36257;46.052;12.540;2023-03-01T01:34:22;2.30;89.60
40932;DHT22;36257;46.052;12.540;2023-03-01T01:36:53;2.20;90.10
40932;DHT22;36257;46.052;12.540;2023-03-01T01:39:20;2.10;90.60
40932;DHT22;36257;46.052;12.540;2023-03-01T01:41:46;2.10;90.70
40932;DHT22;36257;46.052;12.540;2023-03-01T01:44:21;2.20;90.20
40932;DHT22;36257;46.052;12.540;2023-03-01T01:52:00;2.20;89.60
40932;DHT22;36257;46.052;12.540;2023-03-01T01:54:38;2.20;89.80
40932;DHT22;36257;46.052;12.540;2023-03-01T01:57:09;2.20;89.90
40932;DHT22;36257;46.052;12.540;2023-03-01T01:59:36;2.10;90.10
40932;DHT22;36257;46.052;12.540;2023-03-01T02:02:03;2.20;90.30
40932;DHT22;36257;46.052;12.540;2023-03-01T02:04:31;2.10;90.20
40932;DHT22;36257;46.052;12.540;2023-03-01T02:07:19;2.20;90.40
40932;DHT22;36257;46.052;12.540;2023-03-01T02:09:47;2.10;90.40
40932;DHT22;36257;46.052;12.540;2023-03-01T02:12:18;2.10;90.70
40932;DHT22;36257;46.052;12.540;2023-03-01T02:14:44;2.10;90.80
40932;DHT22;36257;46.052;12.540;2023-03-01T02:17:11;2.20;90.70
40932;DHT22;36257;46.052;12.540;2023-03-01T02:22:13;2.20;90.90
40932;DHT22;36257;46.052;12.540;2023-03-01T02:27:14;2.20;90.30
40932;DHT22;36257;46.052;12.540;2023-03-01T02:29:41;2.20;90.50
40932;DHT22;36257;46.052;12.540;2023-03-01T02:32:09;2.20;90.60
40932;DHT22;36257;46.052;12.540;2023-03-01T02:34:39;2.20;90.90
40932;DHT22;36257;46.052;12.540;2023-03-01T02:37:12;2.20;90.80
40932;DHT22;36257;46.052;12.540;2023-03-01T02:39:47;2.30;91.00
40932;DHT22;36257;46.052;12.540;2023-03-01T02:42:18;2.30;90.70
40932;DHT22;36257;46.052;12.540;2023-03-01T02:44:45;2.30;90.80
40932;DHT22;36257;46.052;12.540;2023-03-01T02:47:11;2.30;90.80
40932;DHT22;36257;46.052;12.540;2023-03-01T02:49:37;2.30;90.80
40932;DHT22;36257;46.052;12.540;2023-03-01T02:52:36;2.20;91.00
40932;DHT22;36257;46.052;12.540;2023-03-01T02:55:10;2.20;91.10
40932;DHT22;36257;46.052;12.540;2023-03-01T02:57:40;2.20;91.30
40932;DHT22;36257;46.052;12.540;2023-03-01T03:00:18;2.30;91.30
40932;DHT22;36257;46.052;12.540;2023-03-01T03:02:49;2.30;90.80
40932;DHT22;36257;46.052;12.540;2023-03-01T03:05:17;2.30;90.80
40932;DHT22;36257;46.052;12.540;2023-03-01T03:07:46;2.40;90.80
40932;DHT22;36257;46.052;12.540;2023-03-01T03:10:21;2.40;91.10
40932;DHT22;36257;46.052;12.540;2023-03-01T03:13:01;2.40;91.30
40932;DHT22;36257;46.052;12.540;2023-03-01T03:15:28;2.60;91.10
40932;DHT22;36257;46.052;12.540;2023-03-01T03:17:55;2.70;90.90
40932;DHT22;36257;46.052;12.540;2023-03-01T03:20:24;2.70;90.50
40932;DHT22;36257;46.052;12.540;2023-03-01T03:22:52;2.80;90.50
40932;DHT22;36257;46.052;12.540;2023-03-01T03:25:19;2.80;89.90
40932;DHT22;36257;46.052;12.540;2023-03-01T03:27:46;2.90;89.20
40932;DHT22;36257;46.052;12.540;2023-03-01T03:30:15;2.90;89.50
40932;DHT22;36257;46.052;12.540;2023-03-01T03:32:42;2.90;89.20
40932;DHT22;36257;46.052;12.540;2023-03-01T03:35:19;2.90;89.30
40932;DHT22;36257;46.052;12.540;2023-03-01T03:37:44;3.00;89.20
40932;DHT22;36257;46.052;12.540;2023-03-01T03:40:40;3.00;89.30
40932;DHT22;36257;46.052;12.540;2023-03-01T03:43:07;3.00;89.10
40932;DHT22;36257;46.052;12.540;2023-03-01T03:45:33;3.10;88.80
40932;DHT22;36257;46.052;12.540;2023-03-01T03:47:59;3.10;88.60
40932;DHT22;36257;46.052;12.540;2023-03-01T03:50:25;3.10;88.80
40932;DHT22;36257;46.052;12.540;2023-03-01T03:52:51;3.00;88.80
40932;DHT22;36257;46.052;12.540;2023-03-01T03:55:17;3.10;88.80
40932;DHT22;36257;46.052;12.540;2023-03-01T03:57:45;3.10;88.60
40932;DHT22;36257;46.052;12.540;2023-03-01T04:00:21;3.20;88.30
40932;DHT22;36257;46.052;12.540;2023-03-01T04:02:50;3.30;87.30
40932;DHT22;36257;46.052;12.540;2023-03-01T04:05:17;3.30;86.90
40932;DHT22;36257;46.052;12.540;2023-03-01T04:07:44;3.40;86.10
40932;DHT22;36257;46.052;12.540;2023-03-01T04:10:14;3.50;85.90
40932;DHT22;36257;46.052;12.540;2023-03-01T04:12:41;3.40;86.20
40932;DHT22;36257;46.052;12.540;2023-03-01T04:15:08;3.30;86.20
40932;DHT22;36257;46.052;12.540;2023-03-01T04:17:44;3.40;86.20
40932;DHT22;36257;46.052;12.540;2023-03-01T04:20:15;3.30;86.10
40932;DHT22;36257;46.052;12.540;2023-03-01T04:22:43;3.20;86.60
40932;DHT22;36257;46.052;12.540;2023-03-01T04:25:12;3.20;87.00
40932;DHT22;36257;46.052;12.540;2023-03-01T04:27:40;3.20;86.90
40932;DHT22;36257;46.052;12.540;2023-03-01T04:30:07;3.20;86.90
40932;DHT22;36257;46.052;12.540;2023-03-01T04:32:32;3.10;87.20
40932;DHT22;36257;46.052;12.540;2023-03-01T04:34:59;3.10;87.40
40932;DHT22;36257;46.052;12.540;2023-03-01T04:37:25;3.10;87.30
40932;DHT22;36257;46.052;12.540;2023-03-01T04:39:51;2.90;87.20
40932;DHT22;36257;46.052;12.540;2023-03-01T04:42:17;2.90;88.00
40932;DHT22;36257;46.052;12.540;2023-03-01T04:44:44;2.80;88.10
40932;DHT22;36257;46.052;12.540;2023-03-01T04:47:10;2.80;88.20
40932;DHT22;36257;46.052;12.540;2023-03-01T04:49:35;2.80;88.20
40932;DHT22;36257;46.052;12.540;2023-03-01T04:52:01;2.80;88.60
40932;DHT22;36257;46.052;12.540;2023-03-01T04:54:28;2.70;88.70
40932;DHT22;36257;46.052;12.540;2023-03-01T04:56:54;2.60;89.20
40932;DHT22;36257;46.052;12.540;2023-03-01T04:59:20;2.60;89.40
40932;DHT22;36257;46.052;12.540;2023-03-01T05:01:50;2.50;89.40
40932;DHT22;36257;46.052;12.540;2023-03-01T05:04:16;2.60;89.50
40932;DHT22;36257;46.052;12.540;2023-03-01T05:06:42;2.60;89.40
40932;DHT22;36257;46.052;12.540;2023-03-01T05:09:08;2.70;89.30
40932;DHT22;36257;46.052;12.540;2023-03-01T05:11:33;2.70;88.80
40932;DHT22;36257;46.052;12.540;2023-03-01T05:14:08;2.80;89.00
40932;DHT22;36257;46.052;12.540;2023-03-01T05:16:34;2.80;88.80
40932;DHT22;36257;46.052;12.540;2023-03-01T05:19:02;2.80;88.60
40932;DHT22;36257;46.052;12.540;2023-03-01T05:21:39;3.00;88.60
40932;DHT22;36257;46.052;12.540;2023-03-01T05:24:24;3.10;88.40
40932;DHT22;36257;46.052;12.540;2023-03-01T05:26:50;3.10;88.60
40932;DHT22;36257;46.052;12.540;2023-03-01T05:29:18;3.10;88.40
40932;DHT22;36257;46.052;12.540;2023-03-01T05:31:44;3.10;88.00
40932;DHT22;36257;46.052;12.540;2023-03-01T05:34:10;3.10;88.50
40932;DHT22;36257;46.052;12.540;2023-03-01T05:36:38;3.10;88.50
40932;DHT22;36257;46.052;12.540;2023-03-01T05:39:06;3.10;88.70
40932;DHT22;36257;46.052;12.540;2023-03-01T05:41:31;3.10;88.40
40932;DHT22;36257;46.052;12.540;2023-03-01T05:43:57;3.10;88.50
40932;DHT22;36257;46.052;12.540;2023-03-01T05:46:22;3.20;87.60
40932;DHT22;36257;46.052;12.540;2023-03-01T05:48:49;3.30;87.40
40932;DHT22;36257;46.052;12.540;2023-03-01T05:51:15;3.30;87.70
40932;DHT22;36257;46.052;12.540;2023-03-01T05:53:40;3.30;88.10
40932;DHT22;36257;46.052;12.540;2023-03-01T05:56:07;3.30;88.20
40932;DHT22;36257;46.052;12.540;2023-03-01T05:58:32;3.30;88.80
40932;DHT22;36257;46.052;12.540;2023-03-01T06:01:00;3.30;88.80
40932;DHT22;36257;46.052;12.540;2023-03-01T06:03:26;3.30;89.20
40932;DHT22;36257;46.052;12.540;2023-03-01T06:05:57;3.30;89.70
40932;DHT22;36257;46.052;12.540;2023-03-01T06:08:23;3.30;89.80
40932;DHT22;36257;46.052;12.540;2023-03-01T06:10:49;3.20;90.00
40932;DHT22;36257;46.052;12.540;2023-03-01T06:13:15;3.20;90.20
40932;DHT22;36257;46.052;12.540;2023-03-01T06:15:40;3.20;90.20
40932;DHT22;36257;46.052;12.540;2023-03-01T06:18:06;3.20;90.70
40932;DHT22;36257;46.052;12.540;2023-03-01T06:20:31;3.30;91.00
40932;DHT22;36257;46.052;12.540;2023-03-01T06:22:57;3.40;90.80
40932;DHT22;36257;46.052;12.540;2023-03-01T06:25:25;3.40;91.00
40932;DHT22;36257;46.052;12.540;2023-03-01T06:27:51;3.40;91.10
40932;DHT22;36257;46.052;12.540;2023-03-01T06:30:19;3.50;91.10
40932;DHT22;36257;46.052;12.540;2023-03-01T06:32:45;3.50;91.00
40932;DHT22;36257;46.052;12.540;2023-03-01T06:35:13;3.60;90.80
40932;DHT22;36257;46.052;12.540;2023-03-01T06:37:39;3.60;90.80
40932;DHT22;36257;46.052;12.540;2023-03-01T06:40:06;3.70;90.60
40932;DHT22;36257;46.052;12.540;2023-03-01T06:42:43;3.80;90.00
40932;DHT22;36257;46.052;12.540;2023-03-01T06:45:12;4.00;89.50
40932;DHT22;36257;46.052;12.540;2023-03-01T06:47:38;4.10;88.50
40932;DHT22;36257;46.052;12.540;2023-03-01T06:50:04;4.20;87.80
40932;DHT22;36257;46.052;12.540;2023-03-01T06:52:29;4.40;87.80
40932;DHT22;36257;46.052;12.540;2023-03-01T06:54:55;4.50;89.90
40932;DHT22;36257;46.052;12.540;2023-03-01T06:57:21;4.60;89.50
40932;DHT22;36257;46.052;12.540;2023-03-01T06:59:47;4.70;88.20
40932;DHT22;36257;46.052;12.540;2023-03-01T07:02:14;4.80;88.80
40932;DHT22;36257;46.052;12.540;2023-03-01T07:04:41;4.80;89.90
40932;DHT22;36257;46.052;12.540;2023-03-01T07:07:06;4.80;89.80
40932;DHT22;36257;46.052;12.540;2023-03-01T07:09:32;4.80;90.10
40932;DHT22;36257;46.052;12.540;2023-03-01T07:11:58;4.90;90.00
40932;DHT22;36257;46.052;12.540;2023-03-01T07:14:24;5.00;90.10
40932;DHT22;36257;46.052;12.540;2023-03-01T07:16:51;5.10;89.70
40932;DHT22;36257;46.052;12.540;2023-03-01T07:19:17;5.10;89.50
40932;DHT22;36257;46.052;12.540;2023-03-01T07:21:42;5.20;88.20
40932;DHT22;36257;46.052;12.540;2023-03-01T07:24:08;5.20;88.10
40932;DHT22;36257;46.052;12.540;2023-03-01T07:26:34;5.40;86.60
40932;DHT22;36257;46.052;12.540;2023-03-01T07:29:02;5.60;86.90
40932;DHT22;36257;46.052;12.540;2023-03-01T07:31:28;5.60;85.20
40932;DHT22;36257;46.052;12.540;2023-03-01T07:33:54;5.70;85.70
40932;DHT22;36257;46.052;12.540;2023-03-01T07:36:20;5.80;85.00
40932;DHT22;36257;46.052;12.540;2023-03-01T07:38:45;5.90;83.90
40932;DHT22;36257;46.052;12.540;2023-03-01T07:41:11;5.90;83.00
40932;DHT22;36257;46.052;12.540;2023-03-01T07:43:37;6.00;83.50
40932;DHT22;36257;46.052;12.540;2023-03-01T07:46:03;6.00;83.50
40932;DHT22;36257;46.052;12.540;2023-03-01T07:48:30;6.10;82.90
40932;DHT22;36257;46.052;12.540;2023-03-01T07:51:00;6.10;83.20
40932;DHT22;36257;46.052;12.540;2023-03-01T07:53:26;6.10;84.80
40932;DHT22;36257;46.052;12.540;2023-03-01T07:56:07;6.20;83.80
40932;DHT22;36257;46.052;12.540;2023-03-01T07:58:38;6.50;84.40
40932;DHT22;36257;46.052;12.540;2023-03-01T08:01:05;6.60;84.60
40932;DHT22;36257;46.052;12.540;2023-03-01T08:03:32;6.80;84.60
40932;DHT22;36257;46.052;12.540;2023-03-01T08:06:02;7.00;83.00
40932;DHT22;36257;46.052;12.540;2023-03-01T08:08:28;7.40;83.00
40932;DHT22;36257;46.052;12.540;2023-03-01T08:10:58;7.70;82.50
40932;DHT22;36257;46.052;12.540;2023-03-01T08:13:24;8.10;80.30
40932;DHT22;36257;46.052;12.540;2023-03-01T08:15:50;8.40;79.40
40932;DHT22;36257;46.052;12.540;2023-03-01T08:18:16;8.70;78.80
40932;DHT22;36257;46.052;12.540;2023-03-01T08:20:42;9.00;78.90
40932;DHT22;36257;46.052;12.540;2023-03-01T08:23:08;9.20;77.70
40932;DHT22;36257;46.052;12.540;2023-03-01T08:25:33;9.50;77.10
40932;DHT22;36257;46.052;12.540;2023-03-01T08:27:59;9.70;76.50
40932;DHT22;36257;46.052;12.540;2023-03-01T08:30:25;9.80;75.40
40932;DHT22;36257;46.052;12.540;2023-03-01T08:32:51;10.00;75.80
40932;DHT22;36257;46.052;12.540;2023-03-01T08:35:17;10.10;75.80
40932;DHT22;36257;46.052;12.540;2023-03-01T08:37:44;10.20;75.80
40932;DHT22;36257;46.052;12.540;2023-03-01T08:40:10;10.20;75.50
40932;DHT22;36257;46.052;12.540;2023-03-01T08:42:41;10.30;75.20
40932;DHT22;36257;46.052;12.540;2023-03-01T08:45:09;10.40;74.70
40932;DHT22;36257;46.052;12.540;2023-03-01T08:47:34;10.40;75.90
40932;DHT22;36257;46.052;12.540;2023-03-01T08:50:00;10.60;75.00
40932;DHT22;36257;46.052;12.540;2023-03-01T08:52:26;10.80;75.50
40932;DHT22;36257;46.052;12.540;2023-03-01T08:54:52;11.00;74.70
40932;DHT22;36257;46.052;12.540;2023-03-01T08:57:18;11.20;74.60
40932;DHT22;36257;46.052;12.540;2023-03-01T08:59:43;11.40;74.30
40932;DHT22;36257;46.052;12.540;2023-03-01T09:02:13;11.70;73.90
40932;DHT22;36257;46.052;12.540;2023-03-01T09:04:39;12.30;73.50
40932;DHT22;36257;46.052;12.540;2023-03-01T09:07:05;12.60;72.90
40932;DHT22;36257;46.052;12.540;2023-03-01T09:09:31;12.90;71.20
40932;DHT22;36257;46.052;12.540;2023-03-01T09:11:57;13.30;70.60
40932;DHT22;36257;46.052;12.540;2023-03-01T09:14:22;13.40;69.80
40932;DHT22;36257;46.052;12.540;2023-03-01T09:16:48;13.70;68.20
40932;DHT22;36257;46.052;12.540;2023-03-01T09:19:14;13.80;66.60
40932;DHT22;36257;46.052;12.540;2023-03-01T09:21:40;13.80;67.10
40932;DHT22;36257;46.052;12.540;2023-03-01T09:24:12;13.70;66.20
40932;DHT22;36257;46.052;12.540;2023-03-01T09:26:38;13.70;65.40
40932;DHT22;36257;46.052;12.540;2023-03-01T09:29:04;13.70;66.20
40932;DHT22;36257;46.052;12.540;2023-03-01T09:31:29;13.80;65.90
40932;DHT22;36257;46.052;12.540;2023-03-01T09:33:55;14.20;64.60
40932;DHT22;36257;46.052;12.540;2023-03-01T09:36:22;14.80;63.70
40932;DHT22;36257;46.052;12.540;2023-03-01T09:38:48;15.20;61.90
40932;DHT22;36257;46.052;12.540;2023-03-01T09:43:46;15.70;60.80
40932;DHT22;36257;46.052;12.540;2023-03-01T09:46:15;15.60;61.90
40932;DHT22;36257;46.052;12.540;2023-03-01T09:48:59;15.40;61.40
40932;DHT22;36257;46.052;12.540;2023-03-01T09:51:31;15.70;61.70
40932;DHT22;36257;46.052;12.540;2023-03-01T09:53:57;15.90;60.80
40932;DHT22;36257;46.052;12.540;2023-03-01T09:56:38;15.90;60.50
40932;DHT22;36257;46.052;12.540;2023-03-01T09:59:23;16.00;60.20
40932;DHT22;36257;46.052;12.540;2023-03-01T10:02:13;15.70;60.30
40932;DHT22;36257;46.052;12.540;2023-03-01T10:10:07;15.00;60.60
40932;DHT22;36257;46.052;12.540;2023-03-01T10:12:40;14.90;61.10
40932;DHT22;36257;46.052;12.540;2023-03-01T10:15:25;14.90;61.10
40932;DHT22;36257;46.052;12.540;2023-03-01T10:18:01;14.80;61.50
40932;DHT22;36257;46.052;12.540;2023-03-01T10:20:52;14.80;62.00
40932;DHT22;36257;46.052;12.540;2023-03-01T10:23:18;14.80;61.50
40932;DHT22;36257;46.052;12.540;2023-03-01T10:30:48;14.80;60.90
40932;DHT22;36257;46.052;12.540;2023-03-01T10:35:51;14.80;61.30
40932;DHT22;36257;46.052;12.540;2023-03-01T10:38:17;14.80;61.30
40932;DHT22;36257;46.052;12.540;2023-03-01T10:41:09;14.80;61.90
40932;DHT22;36257;46.052;12.540;2023-03-01T10:46:23;15.10;60.70
40932;DHT22;36257;46.052;12.540;2023-03-01T10:51:41;14.50;63.30
40932;DHT22;36257;46.052;12.540;2023-03-01T10:54:20;14.40;63.70
40932;DHT22;36257;46.052;12.540;2023-03-01T10:56:51;14.00;63.00
40932;DHT22;36257;46.052;12.540;2023-03-01T10:59:28;13.60;64.20
40932;DHT22;36257;46.052;12.540;2023-03-01T11:07:55;12.50;65.00
40932;DHT22;36257;46.052;12.540;2023-03-01T11:10:30;12.20;66.10
40932;DHT22;36257;46.052;12.540;2023-03-01T11:13:14;11.90;66.40
40932;DHT22;36257;46.052;12.540;2023-03-01T11:15:40;11.70;67.30
40932;DHT22;36257;46.052;12.540;2023-03-01T11:18:19;11.80;67.90
40932;DHT22;36257;46.052;12.540;2023-03-01T11:20:45;11.80;67.70
40932;DHT22;36257;46.052;12.540;2023-03-01T11:23:12;11.80;67.10
40932;DHT22;36257;46.052;12.540;2023-03-01T11:25:57;11.70;67.50
40932;DHT22;36257;46.052;12.540;2023-03-01T11:28:25;11.70;67.20
40932;DHT22;36257;46.052;12.540;2023-03-01T11:31:06;11.60;67.60
40932;DHT22;36257;46.052;12.540;2023-03-01T11:41:43;11.50;67.10
40932;DHT22;36257;46.052;12.540;2023-03-01T11:44:18;11.40;67.60
40932;DHT22;36257;46.052;12.540;2023-03-01T11:51:56;11.50;68.30
40932;DHT22;36257;46.052;12.540;2023-03-01T12:08:34;11.20;68.60
40932;DHT22;36257;46.052;12.540;2023-03-01T12:16:29;11.00;68.50
40932;DHT22;36257;46.052;12.540;2023-03-01T12:19:15;10.90;68.40
40932;DHT22;36257;46.052;12.540;2023-03-01T12:22:20;10.90;68.60
40932;DHT22;36257;46.052;12.540;2023-03-01T12:25:00;10.80;68.90
40932;DHT22;36257;46.052;12.540;2023-03-01T12:33:17;10.90;68.60
40932;DHT22;36257;46.052;12.540;2023-03-01T12:36:26;10.80;68.60
40932;DHT22;36257;46.052;12.540;2023-03-01T12:44:47;10.90;68.90
40932;DHT22;36257;46.052;12.540;2023-03-01T12:47:31;10.90;68.30
40932;DHT22;36257;46.052;12.540;2023-03-01T12:50:36;11.00;68.40
40932;DHT22;36257;46.052;12.540;2023-03-01T12:52:58;11.00;68.60
40932;DHT22;36257;46.052;12.540;2023-03-01T12:55:35;11.00;68.60
40932;DHT22;36257;46.052;12.540;2023-03-01T13:03:38;10.90;68.70
40932;DHT22;36257;46.052;12.540;2023-03-01T13:06:15;10.90;69.10
40932;DHT22;36257;46.052;12.540;2023-03-01T13:11:46;10.80;68.90
40932;DHT22;36257;46.052;12.540;2023-03-01T13:16:49;10.80;68.90
40932;DHT22;36257;46.052;12.540;2023-03-01T13:19:16;10.90;68.90
40932;DHT22;36257;46.052;12.540;2023-03-01T13:21:44;11.00;69.00
40932;DHT22;36257;46.052;12.540;2023-03-01T13:27:21;11.00;68.80
40932;DHT22;36257;46.052;12.540;2023-03-01T13:29:53;11.10;69.00
40932;DHT22;36257;46.052;12.540;2023-03-01T13:34:46;11.30;69.70
40932;DHT22;36257;46.052;12.540;2023-03-01T13:37:30;11.30;69.40
40932;DHT22;36257;46.052;12.540;2023-03-01T13:39:59;11.30;69.00
40932;DHT22;36257;46.052;12.540;2023-03-01T13:42:39;11.40;69.00
40932;DHT22;36257;46.052;12.540;2023-03-01T13:45:27;11.40;69.10
40932;DHT22;36257;46.052;12.540;2023-03-01T13:48:01;11.50;69.10
40932;DHT22;36257;46.052;12.540;2023-03-01T13:50:29;11.60;69.10
40932;DHT22;36257;46.052;12.540;2023-03-01T13:52:59;11.80;69.20
40932;DHT22;36257;46.052;12.540;2023-03-01T13:55:32;12.00;69.80
40932;DHT22;36257;46.052;12.540;2023-03-01T13:58:02;12.10;69.00
40932;DHT22;36257;46.052;12.540;2023-03-01T14:05:39;12.70;70.00
40932;DHT22;36257;46.052;12.540;2023-03-01T14:08:13;12.80;69.90
40932;DHT22;36257;46.052;12.540;2023-03-01T14:11:03;12.90;69.30
40932;DHT22;36257;46.052;12.540;2023-03-01T14:13:48;13.00;68.70
40932;DHT22;36257;46.052;12.540;2023-03-01T14:19:08;13.00;67.80
40932;DHT22;36257;46.052;12.540;2023-03-01T14:21:36;13.00;68.00
40932;DHT22;36257;46.052;12.540;2023-03-01T14:24:02;13.00;68.20
40932;DHT22;36257;46.052;12.540;2023-03-01T14:26:29;13.00;68.20
40932;DHT22;36257;46.052;12.540;2023-03-01T14:28:56;13.00;68.20
40932;DHT22;36257;46.052;12.540;2023-03-01T14:33:56;13.10;67.70
40932;DHT22;36257;46.052;12.540;2023-03-01T14:36:28;13.10;66.70
40932;DHT22;36257;46.052;12.540;2023-03-01T14:38:54;13.00;66.70
40932;DHT22;36257;46.052;12.540;2023-03-01T14:41:24;13.00;67.10
40932;DHT22;36257;46.052;12.540;2023-03-01T14:43:55;13.00;67.00
40932;DHT22;36257;46.052;12.540;2023-03-01T14:46:30;13.00;67.30
40932;DHT22;36257;46.052;12.540;2023-03-01T14:49:02;13.00;67.20
40932;DHT22;36257;46.052;12.540;2023-03-01T14:51:28;13.00;66.70
40932;DHT22;36257;46.052;12.540;2023-03-01T14:53:55;13.00;66.90
40932;DHT22;36257;46.052;12.540;2023-03-01T14:56:21;13.10;66.70
40932;DHT22;36257;46.052;12.540;2023-03-01T14:58:51;13.10;66.70
40932;DHT22;36257;46.052;12.540;2023-03-01T15:01:18;13.20;66.50
40932;DHT22;36257;46.052;12.540;2023-03-01T15:03:49;13.20;65.80
40932;DHT22;36257;46.052;12.540;2023-03-01T15:06:18;13.20;66.40
40932;DHT22;36257;46.052;12.540;2023-03-01T15:08:46;13.20;66.10
40932;DHT22;36257;46.052;12.540;2023-03-01T15:11:31;13.20;66.00
40932;DHT22;36257;46.052;12.540;2023-03-01T15:13:57;13.30;66.30
40932;DHT22;36257;46.052;12.540;2023-03-01T15:16:32;13.20;66.80
40932;DHT22;36257;46.052;12.540;2023-03-01T15:19:01;13.20;66.50
40932;DHT22;36257;46.052;12.540;2023-03-01T15:21:33;13.10;66.80
40932;DHT22;36257;46.052;12.540;2023-03-01T15:26:43;13.10;66.40
40932;DHT22;36257;46.052;12.540;2023-03-01T15:29:17;13.10;66.70
40932;DHT22;36257;46.052;12.540;2023-03-01T15:31:43;13.10;66.10
40932;DHT22;36257;46.052;12.540;2023-03-01T15:36:53;13.10;66.50
40932;DHT22;36257;46.052;12.540;2023-03-01T15:39:36;13.10;66.00
40932;DHT22;36257;46.052;12.540;2023-03-01T15:42:10;13.10;67.50
40932;DHT22;36257;46.052;12.540;2023-03-01T15:44:38;13.00;67.40
40932;DHT22;36257;46.052;12.540;2023-03-01T15:47:24;13.00;66.90
40932;DHT22;36257;46.052;12.540;2023-03-01T15:49:53;12.90;67.70
40932;DHT22;36257;46.052;12.540;2023-03-01T15:52:34;12.80;68.20
40932;DHT22;36257;46.052;12.540;2023-03-01T15:55:49;12.70;68.40
40932;DHT22;36257;46.052;12.540;2023-03-01T15:58:12;12.70;69.40
40932;DHT22;36257;46.052;12.540;2023-03-01T16:00:38;12.60;69.80
40932;DHT22;36257;46.052;12.540;2023-03-01T16:03:05;12.60;70.00
40932;DHT22;36257;46.052;12.540;2023-03-01T16:05:33;12.50;69.80
40932;DHT22;36257;46.052;12.540;2023-03-01T16:08:00;12.40;69.40
40932;DHT22;36257;46.052;12.540;2023-03-01T16:10:26;12.40;68.50
40932;DHT22;36257;46.052;12.540;2023-03-01T16:12:52;12.30;69.40
40932;DHT22;36257;46.052;12.540;2023-03-01T16:15:23;12.30;69.50
40932;DHT22;36257;46.052;12.540;2023-03-01T16:17:49;12.30;68.40
40932;DHT22;36257;46.052;12.540;2023-03-01T16:20:16;12.30;68.60
40932;DHT22;36257;46.052;12.540;2023-03-01T16:22:45;12.20;68.70
40932;DHT22;36257;46.052;12.540;2023-03-01T16:25:16;12.10;69.30
40932;DHT22;36257;46.052;12.540;2023-03-01T16:27:43;12.00;70.20
40932;DHT22;36257;46.052;12.540;2023-03-01T16:30:10;11.90;71.50
40932;DHT22;36257;46.052;12.540;2023-03-01T16:32:40;11.70;74.80
40932;DHT22;36257;46.052;12.540;2023-03-01T16:35:11;11.40;74.80
40932;DHT22;36257;46.052;12.540;2023-03-01T16:37:37;11.20;78.60
40932;DHT22;36257;46.052;12.540;2023-03-01T16:40:04;10.90;79.40
40932;DHT22;36257;46.052;12.540;2023-03-01T16:42:37;10.70;80.20
40932;DHT22;36257;46.052;12.540;2023-03-01T16:45:03;10.60;81.60
40932;DHT22;36257;46.052;12.540;2023-03-01T16:47:30;10.50;82.60
40932;DHT22;36257;46.052;12.540;2023-03-01T16:49:56;10.40;82.80
40932;DHT22;36257;46.052;12.540;2023-03-01T16:52:22;10.40;82.50
40932;DHT22;36257;46.052;12.540;2023-03-01T16:54:48;10.30;84.10
40932;DHT22;36257;46.052;12.540;2023-03-01T16:57:14;10.30;84.80
40932;DHT22;36257;46.052;12.540;2023-03-01T16:59:40;10.30;84.00
40932;DHT22;36257;46.052;12.540;2023-03-01T17:02:08;10.20;84.90
40932;DHT22;36257;46.052;12.540;2023-03-01T17:04:36;10.20;86.30
40932;DHT22;36257;46.052;12.540;2023-03-01T17:07:02;10.10;87.10
40932;DHT22;36257;46.052;12.540;2023-03-01T17:09:28;10.10;87.20
40932;DHT22;36257;46.052;12.540;2023-03-01T17:11:54;10.00;87.30
40932;DHT22;36257;46.052;12.540;2023-03-01T17:14:20;10.00;85.90
40932;DHT22;36257;46.052;12.540;2023-03-01T17:16:45;9.90;88.10
40932;DHT22;36257;46.052;12.540;2023-03-01T17:19:11;9.90;87.80
40932;DHT22;36257;46.052;12.540;2023-03-01T17:21:38;9.70;87.60
40932;DHT22;36257;46.052;12.540;2023-03-01T17:24:03;9.50;88.20
40932;DHT22;36257;46.052;12.540;2023-03-01T17:26:29;9.10;89.90
40932;DHT22;36257;46.052;12.540;2023-03-01T17:28:56;8.90;89.40
40932;DHT22;36257;46.052;12.540;2023-03-01T17:31:24;8.80;91.80
40932;DHT22;36257;46.052;12.540;2023-03-01T17:33:49;8.60;91.10